sensor_id;sensor_type;location;lat;lon;timestamp;temperature;humidity
10270;DHT22;5180;50.832;5.390;2022-07-23T00:01:22;17.30;99.90
10270;DHT22;5180;50.832;5.390;2022-07-23T00:03:48;17.20;99.90
10270;DHT22;5180;50.832;5.390;2022-07-23T00:06:17;17.20;99.90
10270;DHT22;5180;50.832;5.390;2022-07-23T00:08:43;17.20;99.90
10270;DHT22;5180;50.832;5.390;2022-07-23T00:11:08;17.20;99.90
10270;DHT22;5180;50.832;5.390;2022-07-23T00:13:34;17.10;99.90
10270;DHT22;5180;50.832;5.390;2022-07-23T00:16:00;17.20;99.90
10270;DHT22;5180;50.832;5.390;2022-07-23T00:18:25;17.10;99.90
10270;DHT22;5180;50.832;5.390;2022-07-23T00:20:51;17.10;99.90
10270;DHT22;5180;50.832;5.390;2022-07-23T00:23:17;17.00;99.90
10270;DHT22;5180;50.832;5.390;2022-07-23T00:25:43;17.00;99.90
10270;DHT22;5180;50.832;5.390;2022-07-23T00:28:08;17.00;99.90
10270;DHT22;5180;50.832;5.390;2022-07-23T00:30:34;17.00;99.90
10270;DHT22;5180;50.832;5.390;2022-07-23T00:33:02;17.00;99.90
10270;DHT22;5180;50.832;5.390;2022-07-23T00:35:30;17.00;99.90
10270;DHT22;5180;50.832;5.390;2022-07-23T00:37:57;17.00;99.90
10270;DHT22;5180;50.832;5.390;2022-07-23T00:40:24;17.00;99.90
10270;DHT22;5180;50.832;5.390;2022-07-23T00:42:49;17.00;99.90
10270;DHT22;5180;50.832;5.390;2022-07-23T00:45:15;17.00;99.90
10270;DHT22;5180;50.832;5.390;2022-07-23T00:47:41;17.00;99.90
10270;DHT22;5180;50.832;5.390;2022-07-23T00:50:08;16.90;99.90
10270;DHT22;5180;50.832;5.390;2022-07-23T00:52:36;16.80;99.90
10270;DHT22;5180;50.832;5.390;2022-07-23T00:55:04;16.70;99.90
10270;DHT22;5180;50.832;5.390;2022-07-23T00:57:29;16.60;99.90
10270;DHT22;5180;50.832;5.390;2022-07-23T00:59:55;16.60;99.90
10270;DHT22;5180;50.832;5.390;2022-07-23T01:02:22;16.50;99.90
10270;DHT22;5180;50.832;5.390;2022-07-23T01:04:48;16.50;99.90
10270;DHT22;5180;50.832;5.390;2022-07-23T01:07:14;16.50;99.90
10270;DHT22;5180;50.832;5.390;2022-07-23T01:09:40;16.50;99.90
10270;DHT22;5180;50.832;5.390;2022-07-23T01:12:06;16.60;99.90
10270;DHT22;5180;50.832;5.390;2022-07-23T01:14:32;16.60;99.90
10270;DHT22;5180;50.832;5.390;2022-07-23T01:16:58;16.60;99.90
10270;DHT22;5180;50.832;5.390;2022-07-23T01:19:24;16.60;99.90
10270;DHT22;5180;50.832;5.390;2022-07-23T01:21:51;16.60;99.90
10270;DHT22;5180;50.832;5.390;2022-07-23T01:24:17;16.60;99.90
10270;DHT22;5180;50.832;5.390;2022-07-23T01:26:46;16.70;99.90
10270;DHT22;5180;50.832;5.390;2022-07-23T01:29:13;16.70;99.90
10270;DHT22;5180;50.832;5.390;2022-07-23T01:31:39;16.60;99.90
10270;DHT22;5180;50.832;5.390;2022-07-23T01:34:05;16.60;99.90
10270;DHT22;5180;50.832;5.390;2022-07-23T01:36:33;16.60;99.90
10270;DHT22;5180;50.832;5.390;2022-07-23T01:38:58;16.60;99.90
10270;DHT22;5180;50.832;5.390;2022-07-23T01:41:24;16.60;99.90
10270;DHT22;5180;50.832;5.390;2022-07-23T01:43:50;16.50;99.90
10270;DHT22;5180;50.832;5.390;2022-07-23T01:46:16;16.50;99.90
10270;DHT22;5180;50.832;5.390;2022-07-23T01:48:41;16.50;99.90
10270;DHT22;5180;50.832;5.390;2022-07-23T01:51:07;16.50;99.90
10270;DHT22;5180;50.832;5.390;2022-07-23T01:53:33;16.50;99.90
10270;DHT22;5180;50.832;5.390;2022-07-23T01:56:00;16.40;99.90
10270;DHT22;5180;50.832;5.390;2022-07-23T01:58:27;16.40;99.90
10270;DHT22;5180;50.832;5.390;2022-07-23T02:00:53;16.40;99.90
10270;DHT22;5180;50.832;5.390;2022-07-23T02:03:19;16.40;99.90
10270;DHT22;5180;50.832;5.390;2022-07-23T02:05:45;16.30;99.90
10270;DHT22;5180;50.832;5.390;2022-07-23T02:08:10;16.30;99.90
10270;DHT22;5180;50.832;5.390;2022-07-23T02:10:36;16.30;99.90
10270;DHT22;5180;50.832;5.390;2022-07-23T02:13:02;16.30;99.90
10270;DHT22;5180;50.832;5.390;2022-07-23T02:15:27;16.20;99.90
10270;DHT22;5180;50.832;5.390;2022-07-23T02:17:54;16.20;99.90
10270;DHT22;5180;50.832;5.390;2022-07-23T02:20:20;16.20;99.90
10270;DHT22;5180;50.832;5.390;2022-07-23T02:22:46;16.10;99.90
10270;DHT22;5180;50.832;5.390;2022-07-23T02:25:11;16.10;99.90
10270;DHT22;5180;50.832;5.390;2022-07-23T02:27:37;16.00;99.90
10270;DHT22;5180;50.832;5.390;2022-07-23T02:30:03;16.00;99.90
10270;DHT22;5180;50.832;5.390;2022-07-23T02:32:29;16.00;99.90
10270;DHT22;5180;50.832;5.390;2022-07-23T02:34:55;16.00;99.90
10270;DHT22;5180;50.832;5.390;2022-07-23T02:37:20;15.90;99.90
10270;DHT22;5180;50.832;5.390;2022-07-23T02:39:46;15.90;99.90
10270;DHT22;5180;50.832;5.390;2022-07-23T02:42:14;15.90;99.90
10270;DHT22;5180;50.832;5.390;2022-07-23T02:44:39;15.90;99.90
10270;DHT22;5180;50.832;5.390;2022-07-23T02:47:05;15.90;99.90
10270;DHT22;5180;50.832;5.390;2022-07-23T02:49:31;15.90;99.90
10270;DHT22;5180;50.832;5.390;2022-07-23T02:51:57;15.90;99.90
10270;DHT22;5180;50.832;5.390;2022-07-23T02:54:22;15.90;99.90
10270;DHT22;5180;50.832;5.390;2022-07-23T02:56:48;15.90;99.90
10270;DHT22;5180;50.832;5.390;2022-07-23T02:59:16;15.90;99.90
10270;DHT22;5180;50.832;5.390;2022-07-23T03:01:41;15.80;99.90
10270;DHT22;5180;50.832;5.390;2022-07-23T03:04:07;15.80;99.90
10270;DHT22;5180;50.832;5.390;2022-07-23T03:06:32;15.80;99.90
10270;DHT22;5180;50.832;5.390;2022-07-23T03:08:58;15.80;99.90
10270;DHT22;5180;50.832;5.390;2022-07-23T03:11:24;15.70;99.90
10270;DHT22;5180;50.832;5.390;2022-07-23T03:13:49;15.70;99.90
10270;DHT22;5180;50.832;5.390;2022-07-23T03:16:15;15.70;99.90
10270;DHT22;5180;50.832;5.390;2022-07-23T03:18:40;15.70;99.90
10270;DHT22;5180;50.832;5.390;2022-07-23T03:21:06;15.70;99.90
10270;DHT22;5180;50.832;5.390;2022-07-23T03:23:32;15.70;99.90
10270;DHT22;5180;50.832;5.390;2022-07-23T03:25:57;15.70;99.90
10270;DHT22;5180;50.832;5.390;2022-07-23T03:28:23;15.70;99.90
10270;DHT22;5180;50.832;5.390;2022-07-23T03:30:49;15.60;99.90
10270;DHT22;5180;50.832;5.390;2022-07-23T03:33:16;15.60;99.90
10270;DHT22;5180;50.832;5.390;2022-07-23T03:35:43;15.60;99.90
10270;DHT22;5180;50.832;5.390;2022-07-23T03:38:08;15.50;99.90
10270;DHT22;5180;50.832;5.390;2022-07-23T03:40:34;15.50;99.90
10270;DHT22;5180;50.832;5.390;2022-07-23T03:43:00;15.40;99.90
10270;DHT22;5180;50.832;5.390;2022-07-23T03:45:26;15.40;99.90
10270;DHT22;5180;50.832;5.390;2022-07-23T03:47:51;15.30;99.90
10270;DHT22;5180;50.832;5.390;2022-07-23T03:50:17;15.30;99.90
10270;DHT22;5180;50.832;5.390;2022-07-23T03:52:43;15.30;99.90
10270;DHT22;5180;50.832;5.390;2022-07-23T03:55:08;15.30;99.90
10270;DHT22;5180;50.832;5.390;2022-07-23T03:57:34;15.30;99.90
10270;DHT22;5180;50.832;5.390;2022-07-23T04:00:00;15.30;99.90
10270;DHT22;5180;50.832;5.390;2022-07-23T04:02:25;15.30;99.90
10270;DHT22;5180;50.832;5.390;2022-07-23T04:04:51;15.30;99.90
10270;DHT22;5180;50.832;5.390;2022-07-23T04:07:17;15.30;99.90
10270;DHT22;5180;50.832;5.390;2022-07-23T04:09:43;15.30;99.90
10270;DHT22;5180;50.832;5.390;2022-07-23T04:12:09;15.30;99.90
10270;DHT22;5180;50.832;5.390;2022-07-23T04:14:35;15.30;99.90
10270;DHT22;5180;50.832;5.390;2022-07-23T04:17:00;15.30;99.90
10270;DHT22;5180;50.832;5.390;2022-07-23T04:19:26;15.30;99.90
10270;DHT22;5180;50.832;5.390;2022-07-23T04:21:52;15.30;99.90
10270;DHT22;5180;50.832;5.390;2022-07-23T04:24:18;15.40;99.90
10270;DHT22;5180;50.832;5.390;2022-07-23T04:26:45;15.50;99.90
10270;DHT22;5180;50.832;5.390;2022-07-23T04:29:10;15.50;99.90
10270;DHT22;5180;50.832;5.390;2022-07-23T04:31:36;15.70;99.90
10270;DHT22;5180;50.832;5.390;2022-07-23T04:34:02;15.70;99.90
10270;DHT22;5180;50.832;5.390;2022-07-23T04:36:27;15.70;99.90
10270;DHT22;5180;50.832;5.390;2022-07-23T04:38:54;15.80;99.90
10270;DHT22;5180;50.832;5.390;2022-07-23T04:41:19;15.80;99.90
10270;DHT22;5180;50.832;5.390;2022-07-23T04:43:45;15.90;99.90
10270;DHT22;5180;50.832;5.390;2022-07-23T04:46:11;15.90;99.90
10270;DHT22;5180;50.832;5.390;2022-07-23T04:48:37;16.00;99.90
10270;DHT22;5180;50.832;5.390;2022-07-23T04:51:03;16.00;99.90
10270;DHT22;5180;50.832;5.390;2022-07-23T04:53:29;16.10;99.90
10270;DHT22;5180;50.832;5.390;2022-07-23T04:55:54;16.10;99.90
10270;DHT22;5180;50.832;5.390;2022-07-23T04:58:20;16.20;99.90
10270;DHT22;5180;50.832;5.390;2022-07-23T05:00:46;16.30;99.90
10270;DHT22;5180;50.832;5.390;2022-07-23T05:03:12;16.40;99.90
10270;DHT22;5180;50.832;5.390;2022-07-23T05:05:38;16.50;99.90
10270;DHT22;5180;50.832;5.390;2022-07-23T05:08:04;16.70;99.90
10270;DHT22;5180;50.832;5.390;2022-07-23T05:10:30;16.80;99.90
10270;DHT22;5180;50.832;5.390;2022-07-23T05:12:55;16.90;99.90
10270;DHT22;5180;50.832;5.390;2022-07-23T05:15:21;17.00;99.90
10270;DHT22;5180;50.832;5.390;2022-07-23T05:17:46;17.10;99.90
10270;DHT22;5180;50.832;5.390;2022-07-23T05:20:12;17.50;99.90
10270;DHT22;5180;50.832;5.390;2022-07-23T05:22:38;17.80;99.90
10270;DHT22;5180;50.832;5.390;2022-07-23T05:25:05;18.50;99.90
10270;DHT22;5180;50.832;5.390;2022-07-23T05:27:30;19.40;99.90
10270;DHT22;5180;50.832;5.390;2022-07-23T05:29:56;20.20;99.90
10270;DHT22;5180;50.832;5.390;2022-07-23T05:32:22;20.90;99.90
10270;DHT22;5180;50.832;5.390;2022-07-23T05:34:48;21.50;99.90
10270;DHT22;5180;50.832;5.390;2022-07-23T05:37:13;22.00;99.90
10270;DHT22;5180;50.832;5.390;2022-07-23T05:39:39;22.40;99.90
10270;DHT22;5180;50.832;5.390;2022-07-23T05:42:04;22.80;99.90
10270;DHT22;5180;50.832;5.390;2022-07-23T05:44:30;23.40;99.90
10270;DHT22;5180;50.832;5.390;2022-07-23T05:46:56;23.70;99.90
10270;DHT22;5180;50.832;5.390;2022-07-23T05:49:21;24.00;99.90
10270;DHT22;5180;50.832;5.390;2022-07-23T05:51:47;24.40;99.90
10270;DHT22;5180;50.832;5.390;2022-07-23T05:54:13;24.90;99.90
10270;DHT22;5180;50.832;5.390;2022-07-23T05:56:38;25.30;99.90
10270;DHT22;5180;50.832;5.390;2022-07-23T05:59:04;25.60;99.90
10270;DHT22;5180;50.832;5.390;2022-07-23T06:01:29;26.10;99.90
10270;DHT22;5180;50.832;5.390;2022-07-23T06:03:55;26.50;99.90
10270;DHT22;5180;50.832;5.390;2022-07-23T06:06:21;26.70;99.90
10270;DHT22;5180;50.832;5.390;2022-07-23T06:08:46;26.50;99.90
10270;DHT22;5180;50.832;5.390;2022-07-23T06:11:12;26.30;99.90
10270;DHT22;5180;50.832;5.390;2022-07-23T06:13:38;26.40;99.90
10270;DHT22;5180;50.832;5.390;2022-07-23T06:16:03;26.50;99.90
10270;DHT22;5180;50.832;5.390;2022-07-23T06:18:29;26.70;99.90
10270;DHT22;5180;50.832;5.390;2022-07-23T06:20:55;26.90;99.90
10270;DHT22;5180;50.832;5.390;2022-07-23T06:23:20;27.30;99.90
10270;DHT22;5180;50.832;5.390;2022-07-23T06:25:46;27.60;99.90
10270;DHT22;5180;50.832;5.390;2022-07-23T06:28:11;27.90;99.90
10270;DHT22;5180;50.832;5.390;2022-07-23T06:30:37;28.20;99.90
10270;DHT22;5180;50.832;5.390;2022-07-23T06:33:03;28.60;99.90
10270;DHT22;5180;50.832;5.390;2022-07-23T06:35:29;28.80;99.90
10270;DHT22;5180;50.832;5.390;2022-07-23T06:37:54;29.10;99.90
10270;DHT22;5180;50.832;5.390;2022-07-23T06:40:20;29.30;99.90
10270;DHT22;5180;50.832;5.390;2022-07-23T06:42:46;29.40;99.90
10270;DHT22;5180;50.832;5.390;2022-07-23T06:45:11;29.60;99.90
10270;DHT22;5180;50.832;5.390;2022-07-23T06:47:37;29.80;99.90
10270;DHT22;5180;50.832;5.390;2022-07-23T06:50:04;30.00;99.40
10270;DHT22;5180;50.832;5.390;2022-07-23T06:52:30;30.40;98.60
10270;DHT22;5180;50.832;5.390;2022-07-23T06:54:55;30.60;98.00
10270;DHT22;5180;50.832;5.390;2022-07-23T06:57:21;30.60;97.70
10270;DHT22;5180;50.832;5.390;2022-07-23T06:59:47;30.10;97.40
10270;DHT22;5180;50.832;5.390;2022-07-23T07:02:13;29.80;97.40
10270;DHT22;5180;50.832;5.390;2022-07-23T07:04:39;29.90;97.10
10270;DHT22;5180;50.832;5.390;2022-07-23T07:07:04;30.30;96.30
10270;DHT22;5180;50.832;5.390;2022-07-23T07:09:30;30.50;96.20
10270;DHT22;5180;50.832;5.390;2022-07-23T07:11:55;30.80;95.70
10270;DHT22;5180;50.832;5.390;2022-07-23T07:14:22;30.30;95.30
10270;DHT22;5180;50.832;5.390;2022-07-23T07:16:47;29.60;95.20
10270;DHT22;5180;50.832;5.390;2022-07-23T07:19:13;29.30;95.40
10270;DHT22;5180;50.832;5.390;2022-07-23T07:21:39;29.50;95.20
10270;DHT22;5180;50.832;5.390;2022-07-23T07:24:05;29.60;95.00
10270;DHT22;5180;50.832;5.390;2022-07-23T07:26:30;29.80;94.70
10270;DHT22;5180;50.832;5.390;2022-07-23T07:28:56;29.90;94.30
10270;DHT22;5180;50.832;5.390;2022-07-23T07:31:22;30.10;94.30
10270;DHT22;5180;50.832;5.390;2022-07-23T07:33:48;30.20;93.80
10270;DHT22;5180;50.832;5.390;2022-07-23T07:36:14;30.40;93.60
10270;DHT22;5180;50.832;5.390;2022-07-23T07:38:39;30.70;93.10
10270;DHT22;5180;50.832;5.390;2022-07-23T07:41:05;30.90;92.80
10270;DHT22;5180;50.832;5.390;2022-07-23T07:43:30;30.80;92.60
10270;DHT22;5180;50.832;5.390;2022-07-23T07:45:56;31.20;92.30
10270;DHT22;5180;50.832;5.390;2022-07-23T07:48:22;31.40;92.00
10270;DHT22;5180;50.832;5.390;2022-07-23T07:50:47;31.30;91.60
10270;DHT22;5180;50.832;5.390;2022-07-23T07:53:13;31.30;91.40
10270;DHT22;5180;50.832;5.390;2022-07-23T07:55:38;31.10;90.90
10270;DHT22;5180;50.832;5.390;2022-07-23T07:58:04;30.70;91.00
10270;DHT22;5180;50.832;5.390;2022-07-23T08:00:30;30.90;90.80
10270;DHT22;5180;50.832;5.390;2022-07-23T08:02:56;31.00;90.80
10270;DHT22;5180;50.832;5.390;2022-07-23T08:05:26;31.20;90.70
10270;DHT22;5180;50.832;5.390;2022-07-23T08:07:52;31.40;90.40
10270;DHT22;5180;50.832;5.390;2022-07-23T08:10:18;31.20;88.90
10270;DHT22;5180;50.832;5.390;2022-07-23T08:12:49;30.90;88.90
10270;DHT22;5180;50.832;5.390;2022-07-23T08:15:17;30.70;89.40
10270;DHT22;5180;50.832;5.390;2022-07-23T08:17:44;30.60;89.30
10270;DHT22;5180;50.832;5.390;2022-07-23T08:20:11;31.00;88.50
10270;DHT22;5180;50.832;5.390;2022-07-23T08:22:49;31.00;87.50
10270;DHT22;5180;50.832;5.390;2022-07-23T08:25:16;31.00;87.40
10270;DHT22;5180;50.832;5.390;2022-07-23T08:27:42;31.00;86.90
10270;DHT22;5180;50.832;5.390;2022-07-23T08:30:08;31.30;87.00
10270;DHT22;5180;50.832;5.390;2022-07-23T08:32:58;31.60;86.70
10270;DHT22;5180;50.832;5.390;2022-07-23T08:35:37;31.50;86.00
10270;DHT22;5180;50.832;5.390;2022-07-23T08:38:06;31.10;86.00
10270;DHT22;5180;50.832;5.390;2022-07-23T08:40:35;31.20;85.30
10270;DHT22;5180;50.832;5.390;2022-07-23T08:43:05;31.50;85.00
10270;DHT22;5180;50.832;5.390;2022-07-23T08:45:37;31.60;84.70
10270;DHT22;5180;50.832;5.390;2022-07-23T08:48:09;31.50;84.40
10270;DHT22;5180;50.832;5.390;2022-07-23T08:50:36;31.40;84.80
10270;DHT22;5180;50.832;5.390;2022-07-23T08:53:05;31.60;84.20
10270;DHT22;5180;50.832;5.390;2022-07-23T08:55:31;31.50;83.50
10270;DHT22;5180;50.832;5.390;2022-07-23T08:57:56;31.30;83.40
10270;DHT22;5180;50.832;5.390;2022-07-23T09:00:22;31.30;82.90
10270;DHT22;5180;50.832;5.390;2022-07-23T09:02:49;31.10;82.00
10270;DHT22;5180;50.832;5.390;2022-07-23T09:05:15;30.70;82.20
10270;DHT22;5180;50.832;5.390;2022-07-23T09:08:04;31.10;81.90
10270;DHT22;5180;50.832;5.390;2022-07-23T09:10:30;30.90;81.00
10270;DHT22;5180;50.832;5.390;2022-07-23T09:12:56;30.80;80.80
10270;DHT22;5180;50.832;5.390;2022-07-23T09:15:22;30.90;80.50
10270;DHT22;5180;50.832;5.390;2022-07-23T09:17:48;30.70;80.50
10270;DHT22;5180;50.832;5.390;2022-07-23T09:20:16;31.00;80.10
10270;DHT22;5180;50.832;5.390;2022-07-23T09:22:46;31.00;80.30
10270;DHT22;5180;50.832;5.390;2022-07-23T09:25:19;31.10;79.60
10270;DHT22;5180;50.832;5.390;2022-07-23T09:27:57;31.40;78.90
10270;DHT22;5180;50.832;5.390;2022-07-23T09:30:29;31.50;78.80
10270;DHT22;5180;50.832;5.390;2022-07-23T09:33:09;31.40;78.90
10270;DHT22;5180;50.832;5.390;2022-07-23T09:35:50;31.20;78.70
10270;DHT22;5180;50.832;5.390;2022-07-23T09:38:17;31.10;79.40
10270;DHT22;5180;50.832;5.390;2022-07-23T09:40:44;31.10;80.20
10270;DHT22;5180;50.832;5.390;2022-07-23T09:43:11;31.20;78.80
10270;DHT22;5180;50.832;5.390;2022-07-23T09:45:37;31.20;79.00
10270;DHT22;5180;50.832;5.390;2022-07-23T09:48:15;31.30;78.70
10270;DHT22;5180;50.832;5.390;2022-07-23T09:50:43;31.30;78.30
10270;DHT22;5180;50.832;5.390;2022-07-23T09:53:10;31.50;78.50
10270;DHT22;5180;50.832;5.390;2022-07-23T09:55:48;31.80;78.00
10270;DHT22;5180;50.832;5.390;2022-07-23T09:58:14;31.70;77.40
10270;DHT22;5180;50.832;5.390;2022-07-23T10:00:42;31.50;77.50
10270;DHT22;5180;50.832;5.390;2022-07-23T10:03:11;31.80;78.20
10270;DHT22;5180;50.832;5.390;2022-07-23T10:05:38;31.90;77.90
10270;DHT22;5180;50.832;5.390;2022-07-23T10:08:06;31.60;77.40
10270;DHT22;5180;50.832;5.390;2022-07-23T10:10:34;31.50;77.30
10270;DHT22;5180;50.832;5.390;2022-07-23T10:13:03;31.20;77.00
10270;DHT22;5180;50.832;5.390;2022-07-23T10:15:48;31.30;76.80
10270;DHT22;5180;50.832;5.390;2022-07-23T10:18:14;31.40;76.80
10270;DHT22;5180;50.832;5.390;2022-07-23T10:20:40;31.70;76.50
10270;DHT22;5180;50.832;5.390;2022-07-23T10:23:27;32.00;76.40
10270;DHT22;5180;50.832;5.390;2022-07-23T10:26:09;32.40;75.70
10270;DHT22;5180;50.832;5.390;2022-07-23T10:28:48;32.50;74.40
10270;DHT22;5180;50.832;5.390;2022-07-23T10:36:59;32.10;74.00
10270;DHT22;5180;50.832;5.390;2022-07-23T10:39:29;32.20;73.80
10270;DHT22;5180;50.832;5.390;2022-07-23T10:42:15;32.30;73.60
10270;DHT22;5180;50.832;5.390;2022-07-23T10:44:43;32.10;72.40
10270;DHT22;5180;50.832;5.390;2022-07-23T10:47:10;32.00;71.70
10270;DHT22;5180;50.832;5.390;2022-07-23T10:49:41;32.20;71.50
10270;DHT22;5180;50.832;5.390;2022-07-23T10:54:40;32.30;70.20
10270;DHT22;5180;50.832;5.390;2022-07-23T10:57:10;32.20;71.00
10270;DHT22;5180;50.832;5.390;2022-07-23T11:02:44;32.10;71.50
10270;DHT22;5180;50.832;5.390;2022-07-23T11:05:19;32.20;71.50
10270;DHT22;5180;50.832;5.390;2022-07-23T11:13:28;31.30;70.00
10270;DHT22;5180;50.832;5.390;2022-07-23T11:16:13;31.30;70.00
10270;DHT22;5180;50.832;5.390;2022-07-23T11:24:06;31.70;68.30
10270;DHT22;5180;50.832;5.390;2022-07-23T11:34:44;31.20;66.50
10270;DHT22;5180;50.832;5.390;2022-07-23T11:37:29;31.40;66.20
10270;DHT22;5180;50.832;5.390;2022-07-23T11:39:57;31.30;65.60
10270;DHT22;5180;50.832;5.390;2022-07-23T11:42:23;31.40;65.60
10270;DHT22;5180;50.832;5.390;2022-07-23T11:44:50;31.40;65.40
10270;DHT22;5180;50.832;5.390;2022-07-23T11:47:25;31.50;65.00
10270;DHT22;5180;50.832;5.390;2022-07-23T11:52:19;31.80;64.50
10270;DHT22;5180;50.832;5.390;2022-07-23T11:55:00;31.80;64.20
10270;DHT22;5180;50.832;5.390;2022-07-23T11:57:32;31.80;64.50
10270;DHT22;5180;50.832;5.390;2022-07-23T12:02:34;31.90;64.40
10270;DHT22;5180;50.832;5.390;2022-07-23T12:05:00;32.00;64.50
10270;DHT22;5180;50.832;5.390;2022-07-23T12:07:28;32.10;64.20
10270;DHT22;5180;50.832;5.390;2022-07-23T12:09:54;32.20;64.40
10270;DHT22;5180;50.832;5.390;2022-07-23T12:12:21;32.30;64.20
10270;DHT22;5180;50.832;5.390;2022-07-23T12:14:55;32.50;63.90
10270;DHT22;5180;50.832;5.390;2022-07-23T12:17:26;32.50;63.80
10270;DHT22;5180;50.832;5.390;2022-07-23T12:19:54;32.30;63.30
10270;DHT22;5180;50.832;5.390;2022-07-23T12:22:21;32.10;63.00
10270;DHT22;5180;50.832;5.390;2022-07-23T12:25:03;32.00;63.10
10270;DHT22;5180;50.832;5.390;2022-07-23T12:27:30;32.00;63.00
10270;DHT22;5180;50.832;5.390;2022-07-23T12:29:56;31.70;63.10
10270;DHT22;5180;50.832;5.390;2022-07-23T12:32:27;31.80;63.40
10270;DHT22;5180;50.832;5.390;2022-07-23T12:35:08;31.90;63.10
10270;DHT22;5180;50.832;5.390;2022-07-23T12:37:36;31.90;63.10
10270;DHT22;5180;50.832;5.390;2022-07-23T12:40:37;31.80;63.20
10270;DHT22;5180;50.832;5.390;2022-07-23T12:43:09;32.20;63.40
10270;DHT22;5180;50.832;5.390;2022-07-23T12:48:30;32.90;63.70
10270;DHT22;5180;50.832;5.390;2022-07-23T12:51:00;32.90;63.60
10270;DHT22;5180;50.832;5.390;2022-07-23T12:53:46;32.90;64.30
10270;DHT22;5180;50.832;5.390;2022-07-23T12:56:14;33.00;64.40
10270;DHT22;5180;50.832;5.390;2022-07-23T13:01:06;32.70;64.00
10270;DHT22;5180;50.832;5.390;2022-07-23T13:06:02;32.70;63.60
10270;DHT22;5180;50.832;5.390;2022-07-23T13:08:29;32.60;64.20
10270;DHT22;5180;50.832;5.390;2022-07-23T13:10:56;32.70;64.70
10270;DHT22;5180;50.832;5.390;2022-07-23T13:13:28;32.90;65.10
10270;DHT22;5180;50.832;5.390;2022-07-23T13:15:54;33.10;65.10
10270;DHT22;5180;50.832;5.390;2022-07-23T13:18:20;33.10;65.30
10270;DHT22;5180;50.832;5.390;2022-07-23T13:20:47;33.20;64.70
10270;DHT22;5180;50.832;5.390;2022-07-23T13:23:13;33.40;64.70
10270;DHT22;5180;50.832;5.390;2022-07-23T13:25:40;33.20;64.70
10270;DHT22;5180;50.832;5.390;2022-07-23T13:28:06;33.40;64.90
10270;DHT22;5180;50.832;5.390;2022-07-23T13:30:32;33.30;64.80
10270;DHT22;5180;50.832;5.390;2022-07-23T13:32:57;33.20;64.70
10270;DHT22;5180;50.832;5.390;2022-07-23T13:35:23;33.20;65.00
10270;DHT22;5180;50.832;5.390;2022-07-23T13:37:50;33.40;64.80
10270;DHT22;5180;50.832;5.390;2022-07-23T13:40:15;33.70;64.20
10270;DHT22;5180;50.832;5.390;2022-07-23T13:42:41;33.90;64.20
10270;DHT22;5180;50.832;5.390;2022-07-23T13:45:07;34.00;63.60
10270;DHT22;5180;50.832;5.390;2022-07-23T13:47:33;33.80;63.20
10270;DHT22;5180;50.832;5.390;2022-07-23T13:49:59;33.60;63.50
10270;DHT22;5180;50.832;5.390;2022-07-23T13:52:24;33.70;63.40
10270;DHT22;5180;50.832;5.390;2022-07-23T13:54:51;34.00;63.30
10270;DHT22;5180;50.832;5.390;2022-07-23T13:57:17;34.00;62.60
10270;DHT22;5180;50.832;5.390;2022-07-23T13:59:43;33.90;63.00
10270;DHT22;5180;50.832;5.390;2022-07-23T14:02:08;34.10;62.50
10270;DHT22;5180;50.832;5.390;2022-07-23T14:04:34;34.00;62.00
10270;DHT22;5180;50.832;5.390;2022-07-23T14:07:00;34.10;62.50
10270;DHT22;5180;50.832;5.390;2022-07-23T14:09:27;34.20;62.80
10270;DHT22;5180;50.832;5.390;2022-07-23T14:11:53;34.30;62.10
10270;DHT22;5180;50.832;5.390;2022-07-23T14:14:19;34.40;61.90
10270;DHT22;5180;50.832;5.390;2022-07-23T14:16:45;34.20;61.50
10270;DHT22;5180;50.832;5.390;2022-07-23T14:19:10;34.30;61.50
10270;DHT22;5180;50.832;5.390;2022-07-23T14:21:37;34.60;61.30
10270;DHT22;5180;50.832;5.390;2022-07-23T14:24:03;34.60;61.30
10270;DHT22;5180;50.832;5.390;2022-07-23T14:26:28;34.70;61.20
10270;DHT22;5180;50.832;5.390;2022-07-23T14:28:55;34.80;61.30
10270;DHT22;5180;50.832;5.390;2022-07-23T14:31:21;35.10;61.10
10270;DHT22;5180;50.832;5.390;2022-07-23T14:33:47;35.20;61.20
10270;DHT22;5180;50.832;5.390;2022-07-23T14:36:12;35.20;60.40
10270;DHT22;5180;50.832;5.390;2022-07-23T14:38:38;35.20;60.00
10270;DHT22;5180;50.832;5.390;2022-07-23T14:41:04;35.00;60.00
10270;DHT22;5180;50.832;5.390;2022-07-23T14:43:32;34.90;59.80
10270;DHT22;5180;50.832;5.390;2022-07-23T14:45:58;34.50;59.90
10270;DHT22;5180;50.832;5.390;2022-07-23T14:48:24;34.30;60.40
10270;DHT22;5180;50.832;5.390;2022-07-23T14:50:49;34.20;59.90
10270;DHT22;5180;50.832;5.390;2022-07-23T14:53:15;34.10;60.10
10270;DHT22;5180;50.832;5.390;2022-07-23T14:55:41;34.10;60.00
10270;DHT22;5180;50.832;5.390;2022-07-23T14:58:07;34.20;59.70
10270;DHT22;5180;50.832;5.390;2022-07-23T15:00:32;34.10;59.60
10270;DHT22;5180;50.832;5.390;2022-07-23T15:02:58;34.20;59.60
10270;DHT22;5180;50.832;5.390;2022-07-23T15:05:24;34.40;59.20
10270;DHT22;5180;50.832;5.390;2022-07-23T15:07:50;34.50;59.10
10270;DHT22;5180;50.832;5.390;2022-07-23T15:10:15;34.40;58.70
10270;DHT22;5180;50.832;5.390;2022-07-23T15:12:41;34.40;58.60
10270;DHT22;5180;50.832;5.390;2022-07-23T15:15:07;34.20;58.60
10270;DHT22;5180;50.832;5.390;2022-07-23T15:17:33;34.00;58.90
10270;DHT22;5180;50.832;5.390;2022-07-23T15:19:59;34.00;58.70
10270;DHT22;5180;50.832;5.390;2022-07-23T15:22:25;33.90;58.70
10270;DHT22;5180;50.832;5.390;2022-07-23T15:24:51;33.80;58.50
10270;DHT22;5180;50.832;5.390;2022-07-23T15:27:17;33.60;58.30
10270;DHT22;5180;50.832;5.390;2022-07-23T15:29:44;33.50;59.20
10270;DHT22;5180;50.832;5.390;2022-07-23T15:32:10;33.50;58.60
10270;DHT22;5180;50.832;5.390;2022-07-23T15:34:37;33.70;58.80
10270;DHT22;5180;50.832;5.390;2022-07-23T15:37:03;33.80;58.50
10270;DHT22;5180;50.832;5.390;2022-07-23T15:39:31;34.00;58.20
10270;DHT22;5180;50.832;5.390;2022-07-23T15:41:58;34.10;58.00
10270;DHT22;5180;50.832;5.390;2022-07-23T15:44:24;34.00;57.90
10270;DHT22;5180;50.832;5.390;2022-07-23T15:46:50;33.80;57.80
10270;DHT22;5180;50.832;5.390;2022-07-23T15:49:16;33.70;58.30
10270;DHT22;5180;50.832;5.390;2022-07-23T15:51:42;33.70;57.70
10270;DHT22;5180;50.832;5.390;2022-07-23T15:54:08;33.50;57.40
10270;DHT22;5180;50.832;5.390;2022-07-23T15:56:33;33.50;57.70
10270;DHT22;5180;50.832;5.390;2022-07-23T15:58:59;33.40;57.90
10270;DHT22;5180;50.832;5.390;2022-07-23T16:01:25;33.40;57.80
10270;DHT22;5180;50.832;5.390;2022-07-23T16:03:51;33.60;58.10
10270;DHT22;5180;50.832;5.390;2022-07-23T16:06:16;33.90;57.90
10270;DHT22;5180;50.832;5.390;2022-07-23T16:08:42;34.20;57.30
10270;DHT22;5180;50.832;5.390;2022-07-23T16:11:08;34.20;57.60
10270;DHT22;5180;50.832;5.390;2022-07-23T16:13:33;34.40;57.80
10270;DHT22;5180;50.832;5.390;2022-07-23T16:16:00;34.60;57.40
10270;DHT22;5180;50.832;5.390;2022-07-23T16:18:26;34.40;57.40
10270;DHT22;5180;50.832;5.390;2022-07-23T16:20:53;34.20;57.30
10270;DHT22;5180;50.832;5.390;2022-07-23T16:23:19;33.90;57.30
10270;DHT22;5180;50.832;5.390;2022-07-23T16:25:45;33.60;57.20
10270;DHT22;5180;50.832;5.390;2022-07-23T16:28:11;33.20;57.70